sensor_id;sensor_type;location;lat;lon;timestamp;pressure;altitude;pressure_sealevel;temperature;humidity
43147;BME280;28752;48.266;7.402;2023-12-04T00:00:41;99483.47;;;-0.75;73.17
43147;BME280;28752;48.266;7.402;2023-12-04T00:03:06;99482.41;;;-0.88;73.23
43147;BME280;28752;48.266;7.402;2023-12-04T00:05:31;99476.03;;;-0.82;72.95
43147;BME280;28752;48.266;7.402;2023-12-04T00:07:57;99473.94;;;-0.74;73.13
43147;BME280;28752;48.266;7.402;2023-12-04T00:10:22;99471.94;;;-0.69;73.06
43147;BME280;28752;48.266;7.402;2023-12-04T00:12:47;99465.84;;;-0.68;72.52
43147;BME280;28752;48.266;7.402;2023-12-04T00:15:13;99459.25;;;-0.75;72.73
43147;BME280;28752;48.266;7.402;2023-12-04T00:17:38;99464.22;;;-0.70;72.56
43147;BME280;28752;48.266;7.402;2023-12-04T00:20:08;99462.38;;;-0.68;72.64
43147;BME280;28752;48.266;7.402;2023-12-04T00:22:34;99448.91;;;-0.77;72.66
43147;BME280;28752;48.266;7.402;2023-12-04T00:25:00;99455.66;;;-0.73;72.73
43147;BME280;28752;48.266;7.402;2023-12-04T00:27:25;99459.94;;;-0.72;72.50
43147;BME280;28752;48.266;7.402;2023-12-04T00:29:52;99442.81;;;-0.76;72.37
43147;BME280;28752;48.266;7.402;2023-12-04T00:32:18;99449.69;;;-0.75;72.31
43147;BME280;28752;48.266;7.402;2023-12-04T00:34:43;99443.66;;;-0.75;72.12
43147;BME280;28752;48.266;7.402;2023-12-04T00:37:08;99444.88;;;-0.65;72.01
43147;BME280;28752;48.266;7.402;2023-12-04T00:39:34;99436.31;;;-0.67;72.08
43147;BME280;28752;48.266;7.402;2023-12-04T00:41:59;99426.91;;;-0.69;71.89
43147;BME280;28752;48.266;7.402;2023-12-04T00:44:24;99427.44;;;-0.63;71.74
43147;BME280;28752;48.266;7.402;2023-12-04T00:46:50;99420.09;;;-0.72;71.91
43147;BME280;28752;48.266;7.402;2023-12-04T00:49:15;99418.09;;;-0.67;71.75
43147;BME280;28752;48.266;7.402;2023-12-04T00:51:40;99424.84;;;-0.80;72.00
43147;BME280;28752;48.266;7.402;2023-12-04T00:54:05;99420.16;;;-0.74;72.00
43147;BME280;28752;48.266;7.402;2023-12-04T00:56:31;99410.44;;;-0.70;71.76
43147;BME280;28752;48.266;7.402;2023-12-04T00:58:56;99400.34;;;-0.76;71.55
43147;BME280;28752;48.266;7.402;2023-12-04T01:01:22;99411.22;;;-0.68;71.59
43147;BME280;28752;48.266;7.402;2023-12-04T01:03:48;99415.00;;;-0.56;71.21
43147;BME280;28752;48.266;7.402;2023-12-04T01:06:23;99407.63;;;-0.65;71.34
43147;BME280;28752;48.266;7.402;2023-12-04T01:08:49;99408.00;;;-0.73;71.63
43147;BME280;28752;48.266;7.402;2023-12-04T01:11:15;99410.59;;;-0.73;71.63
43147;BME280;28752;48.266;7.402;2023-12-04T01:13:41;99415.34;;;-0.81;72.08
43147;BME280;28752;48.266;7.402;2023-12-04T01:16:06;99409.09;;;-0.77;71.99
43147;BME280;28752;48.266;7.402;2023-12-04T01:18:32;99404.50;;;-0.72;71.95
43147;BME280;28752;48.266;7.402;2023-12-04T01:20:57;99400.28;;;-0.75;71.69
43147;BME280;28752;48.266;7.402;2023-12-04T01:23:23;99395.53;;;-0.84;72.03
43147;BME280;28752;48.266;7.402;2023-12-04T01:25:48;99395.75;;;-0.88;72.22
43147;BME280;28752;48.266;7.402;2023-12-04T01:28:13;99393.63;;;-0.80;72.00
43147;BME280;28752;48.266;7.402;2023-12-04T01:30:39;99388.09;;;-0.92;72.10
43147;BME280;28752;48.266;7.402;2023-12-04T01:33:05;99390.16;;;-0.81;71.98
43147;BME280;28752;48.266;7.402;2023-12-04T01:35:30;99392.03;;;-0.83;72.10
43147;BME280;28752;48.266;7.402;2023-12-04T01:37:55;99387.03;;;-0.87;72.32
43147;BME280;28752;48.266;7.402;2023-12-04T01:40:21;99381.09;;;-0.90;72.26
43147;BME280;28752;48.266;7.402;2023-12-04T01:42:47;99376.66;;;-0.87;72.17
43147;BME280;28752;48.266;7.402;2023-12-04T01:45:13;99379.31;;;-0.89;72.30
43147;BME280;28752;48.266;7.402;2023-12-04T01:47:39;99385.44;;;-0.90;72.43
43147;BME280;28752;48.266;7.402;2023-12-04T01:50:05;99386.81;;;-0.83;72.43
43147;BME280;28752;48.266;7.402;2023-12-04T01:52:32;99380.63;;;-0.80;72.31
43147;BME280;28752;48.266;7.402;2023-12-04T01:54:57;99384.22;;;-0.83;72.36
43147;BME280;28752;48.266;7.402;2023-12-04T01:57:23;99373.59;;;-0.78;72.32
43147;BME280;28752;48.266;7.402;2023-12-04T01:59:48;99364.88;;;-0.77;72.23
43147;BME280;28752;48.266;7.402;2023-12-04T02:02:14;99367.34;;;-0.74;72.33
43147;BME280;28752;48.266;7.402;2023-12-04T02:04:39;99368.84;;;-0.70;72.44
43147;BME280;28752;48.266;7.402;2023-12-04T02:07:04;99362.59;;;-0.66;72.40
43147;BME280;28752;48.266;7.402;2023-12-04T02:09:30;99358.28;;;-0.67;72.64
43147;BME280;28752;48.266;7.402;2023-12-04T02:11:56;99363.97;;;-0.59;72.38
43147;BME280;28752;48.266;7.402;2023-12-04T02:14:22;99363.88;;;-0.57;72.36
43147;BME280;28752;48.266;7.402;2023-12-04T02:16:48;99365.59;;;-0.56;72.44
43147;BME280;28752;48.266;7.402;2023-12-04T02:19:13;99366.41;;;-0.56;72.34
43147;BME280;28752;48.266;7.402;2023-12-04T02:21:39;99366.03;;;-0.48;72.19
43147;BME280;28752;48.266;7.402;2023-12-04T02:24:05;99365.28;;;-0.50;72.24
43147;BME280;28752;48.266;7.402;2023-12-04T02:26:34;99364.16;;;-0.46;72.16
43147;BME280;28752;48.266;7.402;2023-12-04T02:29:04;99363.50;;;-0.49;72.26
43147;BME280;28752;48.266;7.402;2023-12-04T02:31:30;99355.69;;;-0.49;72.37
43147;BME280;28752;48.266;7.402;2023-12-04T02:33:59;99358.97;;;-0.46;72.31
43147;BME280;28752;48.266;7.402;2023-12-04T02:36:26;99352.63;;;-0.40;72.12
43147;BME280;28752;48.266;7.402;2023-12-04T02:38:53;99347.56;;;-0.43;72.13
43147;BME280;28752;48.266;7.402;2023-12-04T02:41:19;99347.19;;;-0.36;71.89
43147;BME280;28752;48.266;7.402;2023-12-04T02:43:44;99349.63;;;-0.32;71.94
43147;BME280;28752;48.266;7.402;2023-12-04T02:46:09;99344.50;;;-0.34;71.91
43147;BME280;28752;48.266;7.402;2023-12-04T02:48:35;99347.03;;;-0.32;72.05
43147;BME280;28752;48.266;7.402;2023-12-04T02:51:01;99335.88;;;-0.34;71.80
43147;BME280;28752;48.266;7.402;2023-12-04T02:53:26;99348.31;;;-0.41;71.96
43147;BME280;28752;48.266;7.402;2023-12-04T02:55:52;99334.66;;;-0.45;71.95
43147;BME280;28752;48.266;7.402;2023-12-04T02:58:17;99327.91;;;-0.49;72.00
43147;BME280;28752;48.266;7.402;2023-12-04T03:00:43;99327.28;;;-0.37;71.65
43147;BME280;28752;48.266;7.402;2023-12-04T03:03:08;99331.06;;;-0.42;71.84
43147;BME280;28752;48.266;7.402;2023-12-04T03:05:33;99324.84;;;-0.40;71.80
43147;BME280;28752;48.266;7.402;2023-12-04T03:07:59;99313.28;;;-0.34;71.69
43147;BME280;28752;48.266;7.402;2023-12-04T03:10:24;99314.81;;;-0.30;71.58
43147;BME280;28752;48.266;7.402;2023-12-04T03:12:49;99322.16;;;-0.38;71.90
43147;BME280;28752;48.266;7.402;2023-12-04T03:15:15;99305.88;;;-0.42;71.82
43147;BME280;28752;48.266;7.402;2023-12-04T03:17:40;99302.53;;;-0.44;71.72
43147;BME280;28752;48.266;7.402;2023-12-04T03:20:06;99308.78;;;-0.48;71.77
43147;BME280;28752;48.266;7.402;2023-12-04T03:22:33;99297.81;;;-0.70;72.36
43147;BME280;28752;48.266;7.402;2023-12-04T03:24:59;99294.81;;;-0.45;71.84
43147;BME280;28752;48.266;7.402;2023-12-04T03:27:24;99297.66;;;-0.34;71.77
43147;BME280;28752;48.266;7.402;2023-12-04T03:29:49;99295.69;;;-0.29;71.94
43147;BME280;28752;48.266;7.402;2023-12-04T03:32:15;99295.53;;;-0.26;72.39
43147;BME280;28752;48.266;7.402;2023-12-04T03:34:40;99293.59;;;-0.22;72.04
43147;BME280;28752;48.266;7.402;2023-12-04T03:37:05;99291.97;;;-0.25;72.11
43147;BME280;28752;48.266;7.402;2023-12-04T03:39:31;99283.03;;;-0.19;71.99
43147;BME280;28752;48.266;7.402;2023-12-04T03:41:56;99275.28;;;-0.21;71.80
43147;BME280;28752;48.266;7.402;2023-12-04T03:44:22;99271.63;;;-0.16;71.82
43147;BME280;28752;48.266;7.402;2023-12-04T03:46:47;99274.22;;;-0.16;71.94
43147;BME280;28752;48.266;7.402;2023-12-04T03:49:13;99275.97;;;-0.17;72.01
43147;BME280;28752;48.266;7.402;2023-12-04T03:51:38;99275.22;;;-0.19;72.46
43147;BME280;28752;48.266;7.402;2023-12-04T03:54:03;99276.41;;;-0.09;72.27
43147;BME280;28752;48.266;7.402;2023-12-04T03:56:29;99282.44;;;-0.08;72.26
43147;BME280;28752;48.266;7.402;2023-12-04T03:58:54;99269.19;;;-0.04;72.18
43147;BME280;28752;48.266;7.402;2023-12-04T04:01:20;99261.13;;;0.01;72.00
43147;BME280;28752;48.266;7.402;2023-12-04T04:03:45;99261.28;;;-0.02;71.91
43147;BME280;28752;48.266;7.402;2023-12-04T04:06:11;99269.94;;;-0.02;71.85
43147;BME280;28752;48.266;7.402;2023-12-04T04:08:37;99263.81;;;-0.01;71.91
43147;BME280;28752;48.266;7.402;2023-12-04T04:11:02;99260.53;;;-0.04;71.78
43147;BME280;28752;48.266;7.402;2023-12-04T04:13:28;99278.25;;;0.05;71.59
43147;BME280;28752;48.266;7.402;2023-12-04T04:15:53;99259.13;;;0.06;71.60
43147;BME280;28752;48.266;7.402;2023-12-04T04:18:18;99257.59;;;0.02;71.86
43147;BME280;28752;48.266;7.402;2023-12-04T04:20:43;99255.50;;;0.09;71.88
43147;BME280;28752;48.266;7.402;2023-12-04T04:23:09;99244.34;;;0.07;72.22
43147;BME280;28752;48.266;7.402;2023-12-04T04:25:34;99245.00;;;0.10;72.13
43147;BME280;28752;48.266;7.402;2023-12-04T04:27:59;99235.44;;;0.11;71.96
43147;BME280;28752;48.266;7.402;2023-12-04T04:30:25;99244.66;;;0.16;72.06
43147;BME280;28752;48.266;7.402;2023-12-04T04:32:50;99243.16;;;0.12;72.16
43147;BME280;28752;48.266;7.402;2023-12-04T04:35:15;99246.34;;;0.17;72.25
43147;BME280;28752;48.266;7.402;2023-12-04T04:37:41;99241.31;;;0.14;72.56
43147;BME280;28752;48.266;7.402;2023-12-04T04:40:06;99240.22;;;0.19;72.50
43147;BME280;28752;48.266;7.402;2023-12-04T04:42:32;99245.44;;;0.19;72.42
43147;BME280;28752;48.266;7.402;2023-12-04T04:44:57;99240.06;;;0.22;72.45
43147;BME280;28752;48.266;7.402;2023-12-04T04:47:23;99239.38;;;0.18;72.51
43147;BME280;28752;48.266;7.402;2023-12-04T04:49:48;99238.38;;;0.21;72.27
43147;BME280;28752;48.266;7.402;2023-12-04T04:52:13;99239.28;;;0.20;72.54
43147;BME280;28752;48.266;7.402;2023-12-04T04:54:39;99228.88;;;0.20;72.58
43147;BME280;28752;48.266;7.402;2023-12-04T04:57:04;99230.56;;;0.21;72.65
43147;BME280;28752;48.266;7.402;2023-12-04T04:59:31;99218.78;;;0.29;72.14
43147;BME280;28752;48.266;7.402;2023-12-04T05:01:57;99221.06;;;0.35;71.85
43147;BME280;28752;48.266;7.402;2023-12-04T05:04:22;99208.78;;;0.38;71.74
43147;BME280;28752;48.266;7.402;2023-12-04T05:06:48;99208.84;;;0.36;71.71
43147;BME280;28752;48.266;7.402;2023-12-04T05:09:13;99204.69;;;0.33;71.91
43147;BME280;28752;48.266;7.402;2023-12-04T05:11:38;99207.50;;;0.29;72.31
43147;BME280;28752;48.266;7.402;2023-12-04T05:14:04;99201.56;;;0.27;72.34
43147;BME280;28752;48.266;7.402;2023-12-04T05:16:29;99194.09;;;0.21;72.24
43147;BME280;28752;48.266;7.402;2023-12-04T05:18:54;99189.59;;;0.08;72.73
43147;BME280;28752;48.266;7.402;2023-12-04T05:21:20;99192.16;;;0.24;72.45
43147;BME280;28752;48.266;7.402;2023-12-04T05:23:45;99178.03;;;0.28;72.40
43147;BME280;28752;48.266;7.402;2023-12-04T05:26:11;99180.72;;;0.27;72.36
43147;BME280;28752;48.266;7.402;2023-12-04T05:28:36;99181.38;;;0.30;72.67
43147;BME280;28752;48.266;7.402;2023-12-04T05:31:01;99179.63;;;0.31;72.61
43147;BME280;28752;48.266;7.402;2023-12-04T05:33:27;99179.94;;;0.41;72.32
43147;BME280;28752;48.266;7.402;2023-12-04T05:35:52;99176.34;;;0.43;72.39
43147;BME280;28752;48.266;7.402;2023-12-04T05:38:18;99179.84;;;0.73;71.32
43147;BME280;28752;48.266;7.402;2023-12-04T05:40:43;99161.34;;;0.47;71.49
43147;BME280;28752;48.266;7.402;2023-12-04T05:43:09;99169.09;;;0.48;71.88
43147;BME280;28752;48.266;7.402;2023-12-04T05:45:34;99163.03;;;0.48;71.95
43147;BME280;28752;48.266;7.402;2023-12-04T05:47:59;99162.22;;;0.47;72.22
43147;BME280;28752;48.266;7.402;2023-12-04T05:50:25;99161.09;;;0.51;72.07
43147;BME280;28752;48.266;7.402;2023-12-04T05:52:51;99161.13;;;0.66;72.20
43147;BME280;28752;48.266;7.402;2023-12-04T05:55:16;99156.84;;;0.65;71.82
43147;BME280;28752;48.266;7.402;2023-12-04T05:57:42;99169.59;;;0.69;71.87
43147;BME280;28752;48.266;7.402;2023-12-04T06:00:08;99167.69;;;0.73;72.03
43147;BME280;28752;48.266;7.402;2023-12-04T06:02:42;99153.25;;;0.82;71.98
43147;BME280;28752;48.266;7.402;2023-12-04T06:05:07;99162.94;;;0.80;71.96
43147;BME280;28752;48.266;7.402;2023-12-04T06:07:34;99154.94;;;0.83;72.27
43147;BME280;28752;48.266;7.402;2023-12-04T06:09:59;99149.53;;;0.86;72.04
43147;BME280;28752;48.266;7.402;2023-12-04T06:12:25;99155.97;;;0.95;71.87
43147;BME280;28752;48.266;7.402;2023-12-04T06:14:50;99155.97;;;0.95;71.88
43147;BME280;28752;48.266;7.402;2023-12-04T06:17:16;99162.50;;;1.02;71.38
43147;BME280;28752;48.266;7.402;2023-12-04T06:19:41;99153.56;;;1.06;71.45
43147;BME280;28752;48.266;7.402;2023-12-04T06:22:06;99143.41;;;1.01;71.29
43147;BME280;28752;48.266;7.402;2023-12-04T06:24:33;99163.69;;;1.11;71.28
43147;BME280;28752;48.266;7.402;2023-12-04T06:26:58;99154.03;;;1.13;71.03
43147;BME280;28752;48.266;7.402;2023-12-04T06:29:24;99154.78;;;1.15;71.02
43147;BME280;28752;48.266;7.402;2023-12-04T06:31:50;99154.97;;;1.26;70.94
43147;BME280;28752;48.266;7.402;2023-12-04T06:34:15;99149.28;;;1.34;70.63
43147;BME280;28752;48.266;7.402;2023-12-04T06:36:41;99154.78;;;1.29;70.84
43147;BME280;28752;48.266;7.402;2023-12-04T06:39:11;99149.47;;;1.31;70.82
43147;BME280;28752;48.266;7.402;2023-12-04T06:41:40;99139.22;;;1.28;70.70
43147;BME280;28752;48.266;7.402;2023-12-04T06:44:06;99136.06;;;1.37;70.33
43147;BME280;28752;48.266;7.402;2023-12-04T06:46:34;99142.56;;;1.30;70.61
43147;BME280;28752;48.266;7.402;2023-12-04T06:49:02;99125.72;;;1.35;70.43
43147;BME280;28752;48.266;7.402;2023-12-04T06:51:29;99111.91;;;1.33;70.24
43147;BME280;28752;48.266;7.402;2023-12-04T06:53:54;99112.38;;;1.40;70.08
43147;BME280;28752;48.266;7.402;2023-12-04T06:56:19;99104.31;;;1.16;70.09
43147;BME280;28752;48.266;7.402;2023-12-04T06:58:45;99100.34;;;1.37;70.14
43147;BME280;28752;48.266;7.402;2023-12-04T07:01:10;99097.06;;;1.48;69.93
43147;BME280;28752;48.266;7.402;2023-12-04T07:03:36;99084.31;;;1.44;70.02
43147;BME280;28752;48.266;7.402;2023-12-04T07:06:01;99089.97;;;1.50;70.18
43147;BME280;28752;48.266;7.402;2023-12-04T07:08:26;99085.63;;;1.51;69.82
43147;BME280;28752;48.266;7.402;2023-12-04T07:10:52;99074.38;;;1.36;69.63
43147;BME280;28752;48.266;7.402;2023-12-04T07:13:17;99073.16;;;1.41;69.33
43147;BME280;28752;48.266;7.402;2023-12-04T07:15:43;99074.41;;;1.49;69.17
43147;BME280;28752;48.266;7.402;2023-12-04T07:18:08;99080.31;;;1.52;69.33
43147;BME280;28752;48.266;7.402;2023-12-04T07:20:33;99083.63;;;1.54;69.56
43147;BME280;28752;48.266;7.402;2023-12-04T07:22:59;99067.88;;;1.56;69.76
43147;BME280;28752;48.266;7.402;2023-12-04T07:25:24;99075.41;;;1.60;69.80
43147;BME280;28752;48.266;7.402;2023-12-04T07:27:50;99069.19;;;1.63;69.90
43147;BME280;28752;48.266;7.402;2023-12-04T07:30:15;99066.38;;;1.66;69.50
43147;BME280;28752;48.266;7.402;2023-12-04T07:32:41;99059.75;;;1.60;69.83
43147;BME280;28752;48.266;7.402;2023-12-04T07:35:07;99061.06;;;1.68;69.65
43147;BME280;28752;48.266;7.402;2023-12-04T07:37:32;99072.22;;;1.70;69.76
43147;BME280;28752;48.266;7.402;2023-12-04T07:39:57;99076.31;;;1.74;70.10
43147;BME280;28752;48.266;7.402;2023-12-04T07:42:23;99087.75;;;1.86;70.08
43147;BME280;28752;48.266;7.402;2023-12-04T07:44:48;99080.00;;;1.84;69.86
43147;BME280;28752;48.266;7.402;2023-12-04T07:47:14;99076.66;;;1.82;69.67
43147;BME280;28752;48.266;7.402;2023-12-04T07:49:41;99074.09;;;1.68;69.70
43147;BME280;28752;48.266;7.402;2023-12-04T07:52:06;99068.28;;;1.77;68.91
43147;BME280;28752;48.266;7.402;2023-12-04T07:54:32;99064.00;;;1.76;68.21
43147;BME280;28752;48.266;7.402;2023-12-04T07:56:58;99068.00;;;1.82;67.96
43147;BME280;28752;48.266;7.402;2023-12-04T07:59:23;99063.16;;;1.75;67.55
43147;BME280;28752;48.266;7.402;2023-12-04T08:01:48;99059.75;;;1.88;67.27
43147;BME280;28752;48.266;7.402;2023-12-04T08:04:14;99058.94;;;1.87;67.40
43147;BME280;28752;48.266;7.402;2023-12-04T08:06:39;99058.09;;;1.87;67.61
43147;BME280;28752;48.266;7.402;2023-12-04T08:09:05;99061.34;;;1.90;68.06
43147;BME280;28752;48.266;7.402;2023-12-04T08:11:35;99045.56;;;1.92;67.80
43147;BME280;28752;48.266;7.402;2023-12-04T08:14:01;99043.69;;;1.94;67.46
43147;BME280;28752;48.266;7.402;2023-12-04T08:16:26;99056.44;;;1.99;67.59
43147;BME280;28752;48.266;7.402;2023-12-04T08:18:54;99059.31;;;2.08;67.76
43147;BME280;28752;48.266;7.402;2023-12-04T08:21:19;99059.09;;;2.11;67.82
43147;BME280;28752;48.266;7.402;2023-12-04T08:23:44;99060.16;;;2.22;67.65
43147;BME280;28752;48.266;7.402;2023-12-04T08:26:10;99052.03;;;2.26;67.61
43147;BME280;28752;48.266;7.402;2023-12-04T08:28:35;99058.81;;;2.29;67.73
43147;BME280;28752;48.266;7.402;2023-12-04T08:31:03;99060.78;;;2.25;67.87
43147;BME280;28752;48.266;7.402;2023-12-04T08:33:29;99057.97;;;2.28;67.82
43147;BME280;28752;48.266;7.402;2023-12-04T08:35:54;99059.41;;;2.20;67.34
43147;BME280;28752;48.266;7.402;2023-12-04T08:38:20;99053.47;;;2.30;67.42
43147;BME280;28752;48.266;7.402;2023-12-04T08:40:45;99047.72;;;2.38;67.05
43147;BME280;28752;48.266;7.402;2023-12-04T08:43:10;99053.41;;;2.45;66.61
43147;BME280;28752;48.266;7.402;2023-12-04T08:45:36;99043.16;;;2.55;66.79
43147;BME280;28752;48.266;7.402;2023-12-04T08:48:01;99041.38;;;2.68;66.29
43147;BME280;28752;48.266;7.402;2023-12-04T08:50:26;99055.47;;;2.65;66.28
43147;BME280;28752;48.266;7.402;2023-12-04T08:52:52;99046.50;;;2.57;66.43
43147;BME280;28752;48.266;7.402;2023-12-04T08:55:17;99044.19;;;2.65;65.84
43147;BME280;28752;48.266;7.402;2023-12-04T08:57:43;99039.81;;;2.78;66.00
43147;BME280;28752;48.266;7.402;2023-12-04T09:00:09;99046.19;;;2.74;66.01
43147;BME280;28752;48.266;7.402;2023-12-04T09:02:34;99050.34;;;2.90;65.70
43147;BME280;28752;48.266;7.402;2023-12-04T09:04:59;99050.06;;;2.81;66.17
43147;BME280;28752;48.266;7.402;2023-12-04T09:07:25;99053.16;;;2.87;66.00
43147;BME280;28752;48.266;7.402;2023-12-04T09:09:50;99056.44;;;2.77;66.06
43147;BME280;28752;48.266;7.402;2023-12-04T09:12:16;99052.56;;;2.57;66.18
43147;BME280;28752;48.266;7.402;2023-12-04T09:14:41;99055.47;;;2.65;65.83
43147;BME280;28752;48.266;7.402;2023-12-04T09:17:06;99055.69;;;2.62;65.87
43147;BME280;28752;48.266;7.402;2023-12-04T09:19:32;99055.28;;;2.81;65.72
43147;BME280;28752;48.266;7.402;2023-12-04T09:21:58;99055.59;;;2.64;65.67
43147;BME280;28752;48.266;7.402;2023-12-04T09:24:23;99056.84;;;2.84;65.40
43147;BME280;28752;48.266;7.402;2023-12-04T09:26:49;99047.34;;;2.83;65.41
43147;BME280;28752;48.266;7.402;2023-12-04T09:29:15;99043.34;;;2.90;64.94
43147;BME280;28752;48.266;7.402;2023-12-04T09:31:41;99043.78;;;2.71;65.33
43147;BME280;28752;48.266;7.402;2023-12-04T09:34:06;99036.75;;;2.72;65.37
43147;BME280;28752;48.266;7.402;2023-12-04T09:36:33;99043.97;;;2.94;65.26
43147;BME280;28752;48.266;7.402;2023-12-04T09:38:58;99044.59;;;2.97;65.19
43147;BME280;28752;48.266;7.402;2023-12-04T09:41:24;99044.47;;;2.99;65.45
43147;BME280;28752;48.266;7.402;2023-12-04T09:43:50;99040.22;;;2.98;65.86
43147;BME280;28752;48.266;7.402;2023-12-04T09:46:17;99037.91;;;2.93;66.08
43147;BME280;28752;48.266;7.402;2023-12-04T09:48:43;99032.47;;;2.83;66.60
43147;BME280;28752;48.266;7.402;2023-12-04T09:51:12;99023.16;;;2.92;66.69
43147;BME280;28752;48.266;7.402;2023-12-04T09:53:40;99017.59;;;2.97;66.47
43147;BME280;28752;48.266;7.402;2023-12-04T09:56:26;99002.13;;;2.94;66.00
43147;BME280;28752;48.266;7.402;2023-12-04T09:58:57;99011.53;;;2.96;65.91
43147;BME280;28752;48.266;7.402;2023-12-04T10:01:30;98993.38;;;3.19;64.96
43147;BME280;28752;48.266;7.402;2023-12-04T10:03:59;98998.06;;;3.27;65.46
43147;BME280;28752;48.266;7.402;2023-12-04T10:06:28;98993.94;;;3.35;65.58
43147;BME280;28752;48.266;7.402;2023-12-04T10:08:55;98976.34;;;3.37;65.11
43147;BME280;28752;48.266;7.402;2023-12-04T10:11:22;98973.66;;;3.50;65.01
43147;BME280;28752;48.266;7.402;2023-12-04T10:13:48;98977.75;;;3.30;65.20
43147;BME280;28752;48.266;7.402;2023-12-04T10:16:13;98966.91;;;3.24;65.53
43147;BME280;28752;48.266;7.402;2023-12-04T10:18:39;98967.13;;;3.20;65.84
43147;BME280;28752;48.266;7.402;2023-12-04T10:21:04;98971.53;;;3.07;66.45
43147;BME280;28752;48.266;7.402;2023-12-04T10:23:40;98964.09;;;3.14;66.39
43147;BME280;28752;48.266;7.402;2023-12-04T10:26:06;98969.50;;;3.24;66.09
43147;BME280;28752;48.266;7.402;2023-12-04T10:28:32;98973.97;;;3.34;65.97
43147;BME280;28752;48.266;7.402;2023-12-04T10:30:58;98977.84;;;3.53;65.68
43147;BME280;28752;48.266;7.402;2023-12-04T10:33:25;98968.78;;;3.46;65.31
43147;BME280;28752;48.266;7.402;2023-12-04T10:35:54;98968.88;;;3.44;65.65
43147;BME280;28752;48.266;7.402;2023-12-04T10:38:20;98968.66;;;3.47;65.82
43147;BME280;28752;48.266;7.402;2023-12-04T10:40:46;98960.13;;;3.32;66.47
43147;BME280;28752;48.266;7.402;2023-12-04T10:43:16;98961.81;;;3.33;66.76
43147;BME280;28752;48.266;7.402;2023-12-04T10:45:43;98957.97;;;3.26;67.45
43147;BME280;28752;48.266;7.402;2023-12-04T10:48:11;98952.47;;;3.18;67.86
43147;BME280;28752;48.266;7.402;2023-12-04T10:50:41;98939.72;;;3.37;68.05
43147;BME280;28752;48.266;7.402;2023-12-04T10:53:08;98932.03;;;3.23;68.93
43147;BME280;28752;48.266;7.402;2023-12-04T10:55:35;98927.31;;;3.28;69.19
43147;BME280;28752;48.266;7.402;2023-12-04T10:58:05;98917.63;;;3.42;69.32
43147;BME280;28752;48.266;7.402;2023-12-04T11:00:32;98913.13;;;3.55;68.92
43147;BME280;28752;48.266;7.402;2023-12-04T11:03:07;98908.75;;;3.55;69.31
43147;BME280;28752;48.266;7.402;2023-12-04T11:05:37;98905.91;;;3.59;69.25
43147;BME280;28752;48.266;7.402;2023-12-04T11:08:04;98899.22;;;3.66;69.21
43147;BME280;28752;48.266;7.402;2023-12-04T11:10:31;98891.00;;;3.48;70.03
43147;BME280;28752;48.266;7.402;2023-12-04T11:13:03;98885.53;;;3.62;70.27
43147;BME280;28752;48.266;7.402;2023-12-04T11:15:39;98881.75;;;3.78;70.08
43147;BME280;28752;48.266;7.402;2023-12-04T11:18:06;98861.91;;;3.40;71.16
43147;BME280;28752;48.266;7.402;2023-12-04T11:20:39;98855.81;;;3.74;70.55
43147;BME280;28752;48.266;7.402;2023-12-04T11:23:06;98852.72;;;3.81;70.67
43147;BME280;28752;48.266;7.402;2023-12-04T11:25:34;98845.00;;;3.90;70.65
43147;BME280;28752;48.266;7.402;2023-12-04T11:28:01;98843.00;;;4.05;70.44
43147;BME280;28752;48.266;7.402;2023-12-04T11:30:28;98838.81;;;4.03;70.84
43147;BME280;28752;48.266;7.402;2023-12-04T11:32:54;98830.72;;;4.29;69.94
43147;BME280;28752;48.266;7.402;2023-12-04T11:35:25;98817.16;;;4.12;70.76
43147;BME280;28752;48.266;7.402;2023-12-04T11:37:52;98822.50;;;4.22;70.55
43147;BME280;28752;48.266;7.402;2023-12-04T11:40:18;98823.47;;;4.21;70.69
43147;BME280;28752;48.266;7.402;2023-12-04T11:42:44;98818.09;;;4.22;70.85
43147;BME280;28752;48.266;7.402;2023-12-04T11:45:10;98817.38;;;4.32;70.80
43147;BME280;28752;48.266;7.402;2023-12-04T11:47:54;98814.50;;;4.35;70.73
43147;BME280;28752;48.266;7.402;2023-12-04T11:50:21;98812.22;;;4.41;70.87
43147;BME280;28752;48.266;7.402;2023-12-04T11:52:47;98808.16;;;4.49;70.69
43147;BME280;28752;48.266;7.402;2023-12-04T11:55:15;98802.69;;;4.52;70.67
43147;BME280;28752;48.266;7.402;2023-12-04T11:57:41;98785.75;;;4.44;70.89
43147;BME280;28752;48.266;7.402;2023-12-04T12:02:39;98774.22;;;4.47;70.85
43147;BME280;28752;48.266;7.402;2023-12-04T12:05:05;98778.88;;;4.43;71.01
43147;BME280;28752;48.266;7.402;2023-12-04T12:07:33;98784.56;;;4.49;71.39
43147;BME280;28752;48.266;7.402;2023-12-04T12:09:58;98775.53;;;4.53;71.48
43147;BME280;28752;48.266;7.402;2023-12-04T12:12:25;98760.94;;;4.60;71.65
43147;BME280;28752;48.266;7.402;2023-12-04T12:14:51;98752.53;;;4.77;70.92
43147;BME280;28752;48.266;7.402;2023-12-04T12:17:17;98760.16;;;4.80;71.08
43147;BME280;28752;48.266;7.402;2023-12-04T12:19:42;98760.47;;;4.87;70.68
43147;BME280;28752;48.266;7.402;2023-12-04T12:22:07;98765.53;;;4.79;70.92
43147;BME280;28752;48.266;7.402;2023-12-04T12:24:33;98757.41;;;4.50;71.95
43147;BME280;28752;48.266;7.402;2023-12-04T12:26:58;98750.50;;;4.49;72.14
43147;BME280;28752;48.266;7.402;2023-12-04T12:29:24;98744.75;;;4.55;72.06
43147;BME280;28752;48.266;7.402;2023-12-04T12:31:50;98744.59;;;4.68;72.00
43147;BME280;28752;48.266;7.402;2023-12-04T12:34:17;98728.25;;;4.75;71.66
43147;BME280;28752;48.266;7.402;2023-12-04T12:36:42;98733.09;;;4.80;71.78
43147;BME280;28752;48.266;7.402;2023-12-04T12:39:07;98723.00;;;4.96;70.92
43147;BME280;28752;48.266;7.402;2023-12-04T12:41:33;98715.25;;;4.95;70.88
43147;BME280;28752;48.266;7.402;2023-12-04T12:44:00;98715.97;;;4.97;70.83
43147;BME280;28752;48.266;7.402;2023-12-04T12:46:25;98710.97;;;4.94;71.08
43147;BME280;28752;48.266;7.402;2023-12-04T12:48:51;98708.78;;;4.99;71.09
43147;BME280;28752;48.266;7.402;2023-12-04T12:51:17;98707.72;;;5.02;70.94
43147;BME280;28752;48.266;7.402;2023-12-04T12:53:44;98700.09;;;4.77;71.86
43147;BME280;28752;48.266;7.402;2023-12-04T12:56:09;98693.50;;;4.83;72.09
43147;BME280;28752;48.266;7.402;2023-12-04T12:58:35;98699.28;;;4.98;72.13
43147;BME280;28752;48.266;7.402;2023-12-04T13:01:03;98698.38;;;5.09;71.81
43147;BME280;28752;48.266;7.402;2023-12-04T13:03:30;98696.97;;;5.05;71.73